Data for 01/11/2013

Time Sea-Level Adjusted Pressure Absolute Pressure Temperature Relative Humidity Dew Point   
(mb) (inHg) (mb) (inHg) (C) (F) (%) (C) (F)
00:05 1007 29.74 836 24.69 -11.7 10.9 86 -13.6 7.5
00:10 1007 29.74 836 24.69 -11.8 10.8 86 -13.7 7.4
00:15 1007 29.74 836 24.69 -11.9 10.6 86 -13.8 7.2
00:20 1007 29.74 836 24.69 -11.9 10.6 86 -13.7 7.3
00:25 1007 29.74 836 24.69 -12 10.5 86 -13.8 7.2
00:30 1007 29.74 836 24.69 -12 10.4 86 -13.8 7.1
00:35 1007 29.74 836 24.69 -12 10.4 86 -13.9 7
00:40 1007 29.74 836 24.69 -12.1 10.2 87 -13.9 7
00:45 1007 29.74 836 24.69 -12.2 10.1 87 -13.9 6.9
00:50 1007 29.74 836 24.69 -12.1 10.2 87 -13.9 7
00:55 1007 29.74 836 24.69 -12.1 10.2 86 -14 6.8
01:00 1007 29.74 836 24.69 -12.2 10 87 -14 6.8
01:05 1007 29.74 836 24.69 -12.3 9.8 87 -14.1 6.6
01:10 1007 29.74 836 24.69 -12.3 9.8 86 -14.2 6.5
01:15 1007 29.74 836 24.69 -12.4 9.7 86 -14.2 6.4
01:20 1007 29.74 836 24.69 -12.4 9.7 87 -14.2 6.5
01:25 1007 29.74 836 24.69 -12.4 9.6 86 -14.3 6.2
01:30 1007 29.74 837 24.72 -12.5 9.6 86 -14.3 6.2
01:35 1007 29.74 837 24.72 -12.5 9.5 86 -14.4 6.1
01:40 1007 29.74 837 24.72 -12.5 9.5 86 -14.3 6.2
01:45 1007 29.74 837 24.72 -12.5 9.5 86 -14.4 6.2
01:50 1007 29.74 837 24.72 -12.5 9.4 86 -14.4 6.1
01:55 1007 29.74 837 24.72 -12.6 9.3 87 -14.4 6.1
02:00 1007 29.74 837 24.72 -12.7 9.2 86 -14.5 5.9
02:05 1007 29.74 837 24.72 -12.7 9.2 86 -14.6 5.7
02:10 1008 29.77 837 24.72 -12.7 9.1 86 -14.6 5.8
02:15 1007 29.74 837 24.72 -12.7 9.2 86 -14.5 5.9
02:20 1007 29.74 837 24.72 -12.7 9.2 86 -14.6 5.7
02:25 1007 29.74 837 24.72 -12.8 9 85 -14.7 5.5
02:30 1007 29.74 837 24.72 -12.8 8.9 86 -14.7 5.5
02:35 1007 29.74 837 24.72 -12.8 8.9 86 -14.7 5.5
02:40 1007 29.74 837 24.72 -12.9 8.8 86 -14.8 5.3
02:45 1008 29.77 837 24.72 -12.9 8.9 85 -14.9 5.2
02:50 1008 29.77 837 24.72 -12.9 8.7 85 -15 5
02:55 1008 29.77 837 24.72 -13.1 8.5 85 -15.1 4.8
03:00 1008 29.77 837 24.72 -13.1 8.5 84 -15.2 4.6
03:05 1008 29.77 837 24.72 -13.1 8.5 83 -15.3 4.5
03:10 1008 29.77 837 24.72 -13.1 8.5 84 -15.3 4.5
03:15 1008 29.77 837 24.72 -13.1 8.5 84 -15.2 4.6
03:20 1008 29.77 837 24.72 -13 8.5 83 -15.3 4.4
03:25 1008 29.77 837 24.72 -13.1 8.4 83 -15.5 4.2
03:30 1008 29.77 837 24.72 -13.2 8.2 83 -15.5 4
03:35 1008 29.77 837 24.72 -13.2 8.2 83 -15.5 4.1
03:40 1008 29.77 837 24.72 -13.3 8.1 83 -15.6 4
03:45 1008 29.77 837 24.72 -13.3 8 84 -15.5 4.1
03:50 1008 29.77 837 24.72 -13.3 8 83 -15.6 3.9
03:55 1008 29.77 837 24.72 -13.5 7.8 83 -15.7 3.8
04:00 1008 29.77 837 24.72 -13.6 7.6 84 -15.7 3.7
04:05 1008 29.77 837 24.72 -13.7 7.4 84 -15.8 3.6
04:10 1008 29.77 837 24.72 -13.7 7.3 84 -15.9 3.3
04:15 1008 29.77 837 24.72 -13.8 7.1 83 -16.1 3
04:20 1008 29.77 837 24.72 -13.9 7 84 -16.1 3.1
04:25 1008 29.77 837 24.72 -14 6.8 84 -16.1 3
04:30 1008 29.77 837 24.72 -14 6.7 84 -16.1 3
04:35 1008 29.77 837 24.72 -14.1 6.7 85 -16.1 3.1
04:40 1008 29.77 837 24.72 -14 6.7 84 -16.2 2.8
04:45 1008 29.77 837 24.72 -14 6.7 84 -16.2 2.8
04:50 1008 29.77 837 24.72 -14.2 6.4 84 -16.4 2.5
04:55 1008 29.77 837 24.72 -14.3 6.4 83 -16.5 2.3
05:00 1008 29.77 837 24.72 -14.5 5.9 83 -16.7 1.9
05:05 1008 29.77 837 24.72 -14.6 5.8 83 -16.9 1.6
05:10 1008 29.77 837 24.72 -14.6 5.7 82 -17.1 1.2
05:15 1008 29.77 837 24.72 -14.7 5.6 82 -17.2 1.1
05:20 1008 29.77 837 24.72 -14.7 5.5 82 -17.2 1
05:25 1008 29.77 837 24.72 -14.7 5.5 81 -17.3 0.9
05:30 1008 29.77 838 24.75 -14.7 5.5 81 -17.3 0.9
05:35 1008 29.77 837 24.72 -14.7 5.6 81 -17.3 0.9
05:40 1008 29.77 838 24.75 -14.6 5.6 80 -17.4 0.7
05:45 1008 29.77 838 24.75 -14.7 5.5 80 -17.5 0.5
05:50 1008 29.77 838 24.75 -14.8 5.4 82 -17.3 0.9
05:55 1008 29.77 838 24.75 -14.7 5.5 81 -17.3 0.8
06:00 1008 29.77 838 24.75 -14.8 5.5 82 -17.2 1.1
06:05 1008 29.77 838 24.75 -14.9 5.3 83 -17.2 1.1
06:10 1008 29.77 838 24.75 -14.9 5.3 83 -17.1 1.2
06:15 1008 29.77 838 24.75 -14.9 5.1 84 -17 1.3
06:20 1009 29.8 838 24.75 -14.9 5.2 85 -16.9 1.6
06:25 1009 29.8 838 24.75 -14.8 5.3 85 -16.8 1.7
06:30 1009 29.8 838 24.75 -14.9 5.2 85 -16.9 1.6
06:35 1009 29.8 838 24.75 -14.9 5.1 85 -17 1.5
06:40 1009 29.8 838 24.75 -14.9 5.1 85 -16.9 1.6
06:45 1009 29.8 838 24.75 -14.8 5.3 85 -16.8 1.7
06:50 1009 29.8 838 24.75 -14.7 5.6 84 -16.8 1.8
06:55 1009 29.8 838 24.75 -14.5 5.8 85 -16.5 2.3
07:00 1009 29.8 838 24.75 -14.5 5.9 84 -16.7 2
07:05 1009 29.8 838 24.75 -14.6 5.8 83 -16.9 1.6
07:10 1009 29.8 838 24.75 -14.7 5.6 84 -16.8 1.8
07:15 1009 29.8 838 24.75 -14.6 5.7 83 -16.9 1.6
07:20 1009 29.8 838 24.75 -14.6 5.7 82 -17 1.4
07:25 1009 29.8 838 24.75 -14.6 5.7 83 -16.9 1.5
07:30 1009 29.8 839 24.78 -14.6 5.7 82 -17 1.4
07:35 1009 29.8 839 24.78 -14.7 5.5 83 -17 1.3
07:40 1009 29.8 839 24.78 -14.8 5.4 83 -17.1 1.3
07:45 1010 29.83 839 24.78 -14.8 5.5 83 -17.1 1.3
07:50 1010 29.83 839 24.78 -14.8 5.4 83 -17 1.3
07:55 1010 29.83 839 24.78 -14.8 5.3 83 -17.1 1.2
08:00 1010 29.83 839 24.78 -14.7 5.5 83 -17 1.4
08:05 1010 29.83 839 24.78 -14.9 5.2 83 -17.1 1.2
08:10 1010 29.83 839 24.78 -15.2 4.6 84 -17.3 0.8
08:15 1010 29.83 839 24.78 -15.3 4.5 86 -17.2 1.1
08:20 1010 29.83 839 24.78 -15.1 4.8 85 -17.2 1.1
08:25 1010 29.83 839 24.78 -15 5 84 -17.1 1.2
08:30 1010 29.83 839 24.78 -15.1 4.9 86 -16.9 1.5
08:35 1010 29.83 839 24.78 -14.9 5.2 85 -16.9 1.6
08:40 1010 29.83 839 24.78 -14.9 5.2 85 -16.8 1.7
08:45 1010 29.83 839 24.78 -14.8 5.4 84 -16.9 1.6
08:50 1010 29.83 839 24.78 -14.8 5.3 85 -16.8 1.8
08:55 1010 29.83 840 24.81 -14.8 5.3 84 -16.9 1.6
09:00 1010 29.83 840 24.81 -15 5 84 -17.1 1.2
09:05 1010 29.83 840 24.81 -15.1 4.8 85 -17.1 1.2
09:10 1011 29.85 840 24.81 -15.1 4.8 85 -17.2 1.1
09:15 1011 29.85 840 24.81 -15.1 4.8 85 -17.2 1.1
09:20 1011 29.85 840 24.81 -15.1 4.9 84 -17.2 1.1
09:25 1011 29.85 840 24.81 -15.1 4.8 85 -17.1 1.2
09:30 1011 29.85 840 24.81 -15.1 4.9 85 -17.1 1.3
09:35 1011 29.85 840 24.81 -15.1 4.9 84 -17.2 1
09:40 1011 29.85 840 24.81 -15.1 4.8 84 -17.2 1
09:45 1011 29.85 840 24.81 -15.1 4.8 84 -17.2 1
09:50 1011 29.85 840 24.81 -15.1 4.8 85 -17.1 1.2
09:55 1011 29.85 840 24.81 -15 5 83 -17.3 0.8
10:00 1011 29.85 840 24.81 -15 4.9 84 -17.2 1
10:05 1011 29.85 840 24.81 -15 4.9 83 -17.3 0.8
10:10 1011 29.85 840 24.81 -15.2 4.7 83 -17.4 0.6
10:15 1011 29.85 840 24.81 -15.2 4.6 84 -17.3 0.8
10:20 1011 29.85 840 24.81 -15.1 4.8 84 -17.3 0.8
10:25 1011 29.85 841 24.83 -15.1 4.9 83 -17.4 0.7
10:30 1011 29.85 841 24.83 -15.1 4.8 83 -17.3 0.8
10:35 1011 29.85 841 24.83 -15 5 82 -17.4 0.6
10:40 1011 29.85 841 24.83 -15.1 4.9 83 -17.3 0.8
10:45 1011 29.85 841 24.83 -15.1 4.9 83 -17.4 0.8
10:50 1011 29.85 841 24.83 -15.1 4.9 83 -17.4 0.7
10:55 1011 29.85 841 24.83 -14.9 5.2 82 -17.4 0.7
11:00 1012 29.88 841 24.83 -14.9 5.2 82 -17.3 0.9
11:05 1012 29.88 841 24.83 -14.8 5.3 83 -17.2 1.1
11:10 1012 29.88 841 24.83 -14.8 5.3 82 -17.2 1
11:15 1012 29.88 841 24.83 -14.9 5.2 82 -17.2 1
11:20 1012 29.88 841 24.83 -14.7 5.5 81 -17.3 0.9
11:25 1012 29.88 841 24.83 -14.8 5.4 81 -17.4 0.8
11:30 1012 29.88 841 24.83 -14.7 5.5 81 -17.4 0.7
11:35 1012 29.88 841 24.83 -14.7 5.6 81 -17.2 1
11:40 1012 29.88 841 24.83 -14.7 5.6 82 -17.2 1.1
11:45 1012 29.88 841 24.83 -14.5 5.8 81 -17.2 1.1
11:50 1012 29.88 841 24.83 -14.6 5.7 80 -17.4 0.7
11:55 1012 29.88 841 24.83 -14.7 5.5 80 -17.4 0.6
12:00 1012 29.88 841 24.83 -14.7 5.5 80 -17.4 0.7
12:05 1012 29.88 841 24.83 -14.6 5.6 80 -17.4 0.7
12:10 1012 29.88 841 24.83 -14.6 5.8 79 -17.5 0.6
12:15 1012 29.88 841 24.83 -14.8 5.4 81 -17.4 0.7
12:20 1012 29.88 842 24.86 -14.7 5.6 81 -17.2 1
12:25 1012 29.88 842 24.86 -14.3 6.2 80 -17.1 1.3
12:30 1012 29.88 842 24.86 -14.4 6.1 81 -17 1.4
12:35 1012 29.88 842 24.86 -14.5 5.9 81 -17.1 1.2
12:40 1012 29.88 842 24.86 -14.4 6 80 -17.2 1
12:45 1012 29.88 842 24.86 -14.4 6.1 80 -17.2 1.1
12:50 1012 29.88 842 24.86 -14.1 6.6 78 -17.2 1.1
12:55 1012 29.88 842 24.86 -14.1 6.7 78 -17.1 1.3
13:00 1013 29.91 842 24.86 -14.1 6.6 79 -16.9 1.5
13:05 1013 29.91 842 24.86 -14.1 6.5 78 -17.3 0.9
13:10 1013 29.91 842 24.86 -14.4 6.1 77 -17.5 0.4
13:15 1013 29.91 842 24.86 -14.6 5.7 79 -17.5 0.6
13:20 1013 29.91 842 24.86 -14.4 6 78 -17.5 0.5
13:25 1013 29.91 842 24.86 -14.4 6 77 -17.6 0.3
13:30 1013 29.91 842 24.86 -14.6 5.7 78 -17.6 0.3
13:35 1013 29.91 842 24.86 -14.6 5.7 78 -17.7 0.1
13:40 1013 29.91 842 24.86 -14.6 5.6 78 -17.7 0.2
13:45 1013 29.91 842 24.86 -14.7 5.6 78 -17.7 0.2
13:50 1013 29.91 842 24.86 -14.5 5.9 77 -17.7 0.2
13:55 1013 29.91 842 24.86 -14.5 5.9 78 -17.5 0.4
14:00 1013 29.91 842 24.86 -14.4 6 77 -17.6 0.3
14:05 1013 29.91 842 24.86 -14.4 6 78 -17.4 0.6
14:10 1013 29.91 842 24.86 -14.3 6.2 77 -17.5 0.5
14:15 1013 29.91 842 24.86 -14.4 6.1 78 -17.4 0.6
14:20 1013 29.91 842 24.86 -14.4 6.1 78 -17.5 0.5
14:25 1013 29.91 842 24.86 -14.3 6.3 77 -17.4 0.6
14:30 1013 29.91 842 24.86 -14.5 6 78 -17.5 0.5
14:35 1013 29.91 843 24.89 -14.5 5.8 80 -17.3 0.8
14:40 1013 29.91 843 24.89 -14.4 6.1 79 -17.3 0.9
14:45 1013 29.91 843 24.89 -14.4 6.2 77 -17.5 0.4
14:50 1014 29.94 843 24.89 -14.7 5.6 79 -17.5 0.5
14:55 1014 29.94 843 24.89 -14.7 5.6 78 -17.6 0.2
15:00 1014 29.94 843 24.89 -14.8 5.4 80 -17.4 0.6
15:05 1014 29.94 843 24.89 -14.7 5.5 78 -17.7 0.2
15:10 1014 29.94 843 24.89 -14.8 5.4 79 -17.7 0.2
15:15 1014 29.94 843 24.89 -14.8 5.3 79 -17.7 0.2
15:20 1014 29.94 843 24.89 -14.9 5.2 80 -17.6 0.3
15:25 1014 29.94 843 24.89 -14.8 5.4 79 -17.7 0.2
15:30 1014 29.94 843 24.89 -14.7 5.5 80 -17.4 0.7
15:35 1014 29.94 843 24.89 -14.6 5.7 80 -17.4 0.8
15:40 1014 29.94 844 24.92 -14.6 5.7 79 -17.5 0.5
15:45 1014 29.94 844 24.92 -14.5 6 79 -17.3 0.8
15:50 1015 29.97 844 24.92 -14.4 6.1 79 -17.2 1
15:55 1015 29.97 844 24.92 -14.3 6.2 78 -17.3 0.8
16:00 1015 29.97 844 24.92 -14.7 5.5 79 -17.6 0.4
16:05 1015 29.97 844 24.92 -14.8 5.4 79 -17.6 0.3
16:10 1015 29.97 844 24.92 -14.8 5.3 80 -17.6 0.3
16:15 1015 29.97 844 24.92 -14.7 5.5 81 -17.4 0.7
16:20 1015 29.97 844 24.92 -14.6 5.8 80 -17.4 0.8
16:25 1015 29.97 844 24.92 -14.8 5.4 81 -17.4 0.7
16:30 1015 29.97 844 24.92 -14.8 5.3 81 -17.4 0.8
16:35 1015 29.97 844 24.92 -14.9 5.3 82 -17.3 0.9
16:40 1015 29.97 844 24.92 -14.8 5.4 81 -17.4 0.7
16:45 1015 29.97 844 24.92 -14.8 5.3 81 -17.5 0.6
16:50 1015 29.97 844 24.92 -14.7 5.5 82 -17.2 1.1
16:55 1015 29.97 844 24.92 -14.7 5.5 81 -17.2 1
17:00 1015 29.97 845 24.95 -14.7 5.6 81 -17.2 1
17:05 1015 29.97 845 24.95 -14.6 5.6 80 -17.4 0.7
17:10 1015 29.97 845 24.95 -14.7 5.5 82 -17.2 1
17:15 1016 30 845 24.95 -14.8 5.4 81 -17.3 0.8
17:20 1016 30 845 24.95 -14.9 5.2 82 -17.3 0.9
17:25 1016 30 845 24.95 -14.9 5.2 82 -17.3 0.9
17:30 1016 30 845 24.95 -14.9 5.2 83 -17.2 1.1
17:35 1016 30 845 24.95 -14.9 5.2 82 -17.4 0.8
17:40 1016 30 845 24.95 -15 5 83 -17.2 1
17:45 1016 30 845 24.95 -15 5 83 -17.3 0.9
17:50 1016 30 845 24.95 -15 5 83 -17.3 0.9
17:55 1016 30 845 24.95 -15.2 4.6 83 -17.4 0.6
18:00 1016 30 845 24.95 -15.3 4.4 82 -17.8 -0
18:05 1016 30 845 24.95 -15.5 4.1 84 -17.6 0.4
18:10 1016 30 845 24.95 -15.4 4.2 84 -17.6 0.4
18:15 1016 30 845 24.95 -15.5 4.1 83 -17.7 0.1
18:20 1016 30 845 24.95 -15.6 4 83 -17.8 -0
18:25 1016 30 845 24.95 -15.7 3.7 84 -17.8 -0.1
18:30 1016 30 845 24.95 -15.7 3.7 84 -17.8 -0
18:35 1016 30 845 24.95 -15.6 3.9 83 -17.9 -0.2
18:40 1016 30 845 24.95 -15.8 3.5 83 -18.1 -0.6
18:45 1016 30 845 24.95 -15.9 3.4 84 -18 -0.5
18:50 1016 30 845 24.95 -15.8 3.5 83 -18.1 -0.5
18:55 1016 30 845 24.95 -15.9 3.5 84 -18 -0.4
19:00 1016 30 845 24.95 -15.8 3.5 83 -18.1 -0.6
19:05 1016 30 845 24.95 -15.9 3.4 83 -18.1 -0.6
19:10 1016 30 846 24.98 -15.8 3.5 83 -18 -0.5
19:15 1016 30 846 24.98 -15.8 3.7 84 -17.9 -0.2
19:20 1016 30 846 24.98 -15.7 3.8 84 -17.8 -0.1
19:25 1016 30 846 24.98 -15.7 3.8 84 -17.7 0.1
19:30 1016 30 846 24.98 -15.6 3.8 84 -17.8 -0.1
19:35 1017 30.03 846 24.98 -15.7 3.8 84 -17.8 -0.1
19:40 1017 30.03 846 24.98 -15.6 3.9 83 -17.9 -0.2
19:45 1017 30.03 846 24.98 -15.6 3.9 83 -17.8 -0.1
19:50 1017 30.03 846 24.98 -15.8 3.5 84 -18 -0.4
19:55 1017 30.03 846 24.98 -15.9 3.5 84 -18 -0.5
20:00 1017 30.03 846 24.98 -15.9 3.4 84 -18 -0.4
20:05 1017 30.03 846 24.98 -15.8 3.5 84 -18 -0.4
20:10 1017 30.03 846 24.98 -15.8 3.5 83 -18 -0.5
20:15 1017 30.03 846 24.98 -15.9 3.5 83 -18 -0.5
20:20 1017 30.03 846 24.98 -15.9 3.4 83 -18.1 -0.6
20:25 1017 30.03 846 24.98 -15.9 3.4 83 -18.1 -0.6
20:30 1017 30.03 846 24.98 -15.9 3.4 83 -18.1 -0.6
20:35 1017 30.03 846 24.98 -15.9 3.4 83 -18.2 -0.7
20:40 1017 30.03 846 24.98 -15.9 3.3 83 -18.2 -0.8
20:45 1017 30.03 846 24.98 -15.9 3.4 83 -18.2 -0.7
20:50 1017 30.03 846 24.98 -15.9 3.3 83 -18.2 -0.8
20:55 1017 30.03 846 24.98 -16 3.2 83 -18.3 -0.9
21:00 1017 30.03 846 24.98 -16 3.3 83 -18.3 -0.9
21:05 1017 30.03 846 24.98 -15.9 3.3 83 -18.2 -0.8
21:10 1017 30.03 846 24.98 -15.9 3.4 83 -18.1 -0.6
21:15 1017 30.03 846 24.98 -15.9 3.4 82 -18.3 -0.9
21:20 1017 30.03 846 24.98 -15.9 3.4 83 -18.2 -0.8
21:25 1017 30.03 846 24.98 -15.9 3.5 82 -18.2 -0.8
21:30 1017 30.03 846 24.98 -15.8 3.5 83 -18.2 -0.7
21:35 1017 30.03 846 24.98 -15.8 3.5 82 -18.2 -0.7
21:40 1017 30.03 846 24.98 -15.8 3.5 83 -18.1 -0.6
21:45 1017 30.03 846 24.98 -15.7 3.8 83 -18 -0.4
21:50 1017 30.03 846 24.98 -15.7 3.8 82 -18 -0.4
21:55 1017 30.03 846 24.98 -15.7 3.8 82 -18 -0.4
22:00 1017 30.03 846 24.98 -15.6 3.9 83 -18 -0.3
22:05 1017 30.03 846 24.98 -15.7 3.7 82 -18.1 -0.6
22:10 1017 30.03 846 24.98 -15.8 3.5 83 -18 -0.5
22:15 1017 30.03 846 24.98 -15.8 3.5 82 -18.2 -0.8
22:20 1017 30.03 846 24.98 -16 3.3 82 -18.3 -0.9
22:25 1017 30.03 846 24.98 -16 3.2 83 -18.3 -0.9
22:30 1017 30.03 846 24.98 -15.9 3.3 82 -18.3 -0.9
22:35 1017 30.03 846 24.98 -15.9 3.5 83 -18.1 -0.5
22:40 1017 30.03 846 24.98 -15.9 3.3 83 -18.3 -0.9
22:45 1017 30.03 846 24.98 -16.1 3 83 -18.4 -1
22:50 1017 30.03 846 24.98 -16.2 2.8 83 -18.5 -1.3
22:55 1017 30.03 846 24.98 -16.1 3 83 -18.3 -1
23:00 1017 30.03 846 24.98 -16.2 2.9 83 -18.4 -1.2
23:05 1017 30.03 846 24.98 -16.2 2.9 84 -18.3 -1
23:10 1017 30.03 846 24.98 -16.2 2.9 84 -18.3 -1
23:15 1017 30.03 847 25.01 -16.2 2.8 84 -18.3 -0.9
23:20 1017 30.03 847 25.01 -16.2 2.9 84 -18.3 -0.9
23:25 1017 30.03 847 25.01 -16 3.2 83 -18.2 -0.8
23:30 1017 30.03 847 25.01 -16 3.1 84 -18.1 -0.6
23:35 1017 30.03 847 25.01 -16 3.2 84 -18.1 -0.5
23:40 1017 30.03 847 25.01 -15.9 3.4 83 -18.1 -0.6
23:45 1017 30.03 847 25.01 -15.8 3.5 83 -18 -0.4
23:50 1017 30.03 847 25.01 -15.8 3.6 85 -17.8 -0.1
23:55 1017 30.03 847 25.01 -15.8 3.6 84 -17.9 -0.2
24:00 1017 30.03 847 25.01 -15.7 3.8 84 -17.7 0.1